sensor_id;sensor_type;location;lat;lon;timestamp;pressure;altitude;pressure_sealevel;temperature;humidity
74346;BME280;62776;50.518;6.732;2022-08-16T00:00:36;95788.97;;;19.05;90.73
74346;BME280;62776;50.518;6.732;2022-08-16T00:03:22;95793.16;;;19.09;90.76
74346;BME280;62776;50.518;6.732;2022-08-16T00:06:09;95791.28;;;19.11;90.89
74346;BME280;62776;50.518;6.732;2022-08-16T00:08:55;95792.13;;;19.11;90.72
74346;BME280;62776;50.518;6.732;2022-08-16T00:11:42;95790.16;;;19.15;90.52
74346;BME280;62776;50.518;6.732;2022-08-16T00:14:30;95787.44;;;19.16;90.29
74346;BME280;62776;50.518;6.732;2022-08-16T00:17:17;95789.97;;;19.18;89.70
74346;BME280;62776;50.518;6.732;2022-08-16T00:20:04;95791.75;;;19.17;89.79
74346;BME280;62776;50.518;6.732;2022-08-16T00:22:53;95794.38;;;19.17;89.91
74346;BME280;62776;50.518;6.732;2022-08-16T00:25:40;95805.94;;;19.15;90.18
74346;BME280;62776;50.518;6.732;2022-08-16T00:28:26;95792.03;;;19.13;90.33
74346;BME280;62776;50.518;6.732;2022-08-16T00:31:12;95798.91;;;19.15;89.62
74346;BME280;62776;50.518;6.732;2022-08-16T00:33:58;95803.31;;;19.15;89.91
74346;BME280;62776;50.518;6.732;2022-08-16T00:36:44;95804.94;;;19.17;90.20
74346;BME280;62776;50.518;6.732;2022-08-16T00:39:31;95796.19;;;19.17;90.15
74346;BME280;62776;50.518;6.732;2022-08-16T00:42:18;95804.94;;;19.17;89.63
74346;BME280;62776;50.518;6.732;2022-08-16T00:45:11;95808.84;;;19.10;89.86
74346;BME280;62776;50.518;6.732;2022-08-16T00:48:04;95810.41;;;19.14;89.59
74346;BME280;62776;50.518;6.732;2022-08-16T00:50:51;95800.53;;;19.18;89.69
74346;BME280;62776;50.518;6.732;2022-08-16T00:53:37;95806.63;;;19.18;89.77
74346;BME280;62776;50.518;6.732;2022-08-16T00:56:31;95799.19;;;19.11;89.52
74346;BME280;62776;50.518;6.732;2022-08-16T00:59:21;95805.38;;;19.10;89.22
74346;BME280;62776;50.518;6.732;2022-08-16T01:02:09;95805.13;;;19.14;89.08
74346;BME280;62776;50.518;6.732;2022-08-16T01:04:40;95803.09;;;19.19;88.60
74346;BME280;62776;50.518;6.732;2022-08-16T01:07:27;95800.53;;;19.18;88.90
74346;BME280;62776;50.518;6.732;2022-08-16T01:10:14;95803.09;;;19.19;89.20
74346;BME280;62776;50.518;6.732;2022-08-16T01:13:13;95805.13;;;19.14;88.84
74346;BME280;62776;50.518;6.732;2022-08-16T01:22:05;95799.69;;;19.02;89.58
74346;BME280;62776;50.518;6.732;2022-08-16T01:25:10;95799.84;;;18.99;89.47
74346;BME280;62776;50.518;6.732;2022-08-16T01:28:01;95802.56;;;18.97;89.81
74346;BME280;62776;50.518;6.732;2022-08-16T01:30:53;95800.97;;;18.95;89.66
74346;BME280;62776;50.518;6.732;2022-08-16T01:33:40;95801.94;;;18.44;92.19
74346;BME280;62776;50.518;6.732;2022-08-16T01:36:27;95799.84;;;18.83;90.95
74346;BME280;62776;50.518;6.732;2022-08-16T01:39:16;95814.94;;;18.79;91.27
74346;BME280;62776;50.518;6.732;2022-08-16T01:42:03;95803.75;;;18.76;91.28
74346;BME280;62776;50.518;6.732;2022-08-16T01:44:50;95806.44;;;18.74;91.69
74346;BME280;62776;50.518;6.732;2022-08-16T01:47:37;95798.81;;;18.70;91.52
74346;BME280;62776;50.518;6.732;2022-08-16T01:50:24;95806.72;;;18.70;91.78
74346;BME280;62776;50.518;6.732;2022-08-16T01:53:11;95799.13;;;18.64;92.45
74346;BME280;62776;50.518;6.732;2022-08-16T01:55:57;95794.03;;;18.61;92.83
74346;BME280;62776;50.518;6.732;2022-08-16T01:58:43;95792.53;;;18.57;93.30
74346;BME280;62776;50.518;6.732;2022-08-16T02:01:30;95787.41;;;18.54;93.29
74346;BME280;62776;50.518;6.732;2022-08-16T02:04:18;95789.41;;;18.49;93.06
74346;BME280;62776;50.518;6.732;2022-08-16T02:07:04;95786.78;;;18.49;93.37
74346;BME280;62776;50.518;6.732;2022-08-16T02:09:53;95791.41;;;18.44;93.91
74346;BME280;62776;50.518;6.732;2022-08-16T02:12:40;95790.91;;;18.37;94.51
74346;BME280;62776;50.518;6.732;2022-08-16T02:15:27;95792.75;;;18.35;94.43
74346;BME280;62776;50.518;6.732;2022-08-16T02:18:14;95780.59;;;18.33;95.11
74346;BME280;62776;50.518;6.732;2022-08-16T02:21:00;95786.97;;;18.28;95.42
74346;BME280;62776;50.518;6.732;2022-08-16T02:23:48;95783.75;;;18.23;96.06
74346;BME280;62776;50.518;6.732;2022-08-16T02:26:34;95783.81;;;18.22;97.10
74346;BME280;62776;50.518;6.732;2022-08-16T02:29:20;95776.94;;;18.19;95.99
74346;BME280;62776;50.518;6.732;2022-08-16T02:32:08;95783.09;;;18.18;96.13
74346;BME280;62776;50.518;6.732;2022-08-16T02:34:55;95778.81;;;18.17;95.74
74346;BME280;62776;50.518;6.732;2022-08-16T02:37:41;95780.66;;;18.15;95.50
74346;BME280;62776;50.518;6.732;2022-08-16T02:40:28;95780.66;;;18.15;95.46
74346;BME280;62776;50.518;6.732;2022-08-16T02:43:15;95776.38;;;18.13;95.44
74346;BME280;62776;50.518;6.732;2022-08-16T02:46:01;95778.34;;;18.09;94.96
74346;BME280;62776;50.518;6.732;2022-08-16T02:48:48;95782.00;;;18.07;94.94
74346;BME280;62776;50.518;6.732;2022-08-16T02:51:34;95784.78;;;18.04;94.27
74346;BME280;62776;50.518;6.732;2022-08-16T02:54:21;95784.00;;;18.02;94.35
74346;BME280;62776;50.518;6.732;2022-08-16T02:57:07;95780.75;;;17.97;94.10
74346;BME280;62776;50.518;6.732;2022-08-16T02:59:53;95781.75;;;17.94;94.10
74346;BME280;62776;50.518;6.732;2022-08-16T03:02:41;95788.28;;;17.87;94.78
74346;BME280;62776;50.518;6.732;2022-08-16T03:05:29;95784.09;;;17.83;96.24
74346;BME280;62776;50.518;6.732;2022-08-16T03:08:16;95786.97;;;17.79;98.04
74346;BME280;62776;50.518;6.732;2022-08-16T03:11:03;95787.97;;;17.76;97.80
74346;BME280;62776;50.518;6.732;2022-08-16T03:13:52;95788.41;;;17.67;97.16
74346;BME280;62776;50.518;6.732;2022-08-16T03:16:39;95784.72;;;17.71;97.17
74346;BME280;62776;50.518;6.732;2022-08-16T03:19:26;95786.56;;;17.69;96.91
74346;BME280;62776;50.518;6.732;2022-08-16T03:22:12;95795.44;;;17.66;96.92
74346;BME280;62776;50.518;6.732;2022-08-16T03:25:00;95801.94;;;17.59;96.71
74346;BME280;62776;50.518;6.732;2022-08-16T03:27:47;95805.50;;;17.58;97.75
74346;BME280;62776;50.518;6.732;2022-08-16T03:30:34;95806.59;;;17.54;97.58
74346;BME280;62776;50.518;6.732;2022-08-16T03:33:20;95808.34;;;17.54;97.03
74346;BME280;62776;50.518;6.732;2022-08-16T03:36:07;95810.19;;;17.52;97.58
74346;BME280;62776;50.518;6.732;2022-08-16T03:38:53;95806.00;;;17.48;98.42
74346;BME280;62776;50.518;6.732;2022-08-16T03:41:39;95808.63;;;17.48;99.23
74346;BME280;62776;50.518;6.732;2022-08-16T03:44:26;95804.22;;;17.48;100.00
74346;BME280;62776;50.518;6.732;2022-08-16T03:47:13;95799.13;;;17.45;100.00
74346;BME280;62776;50.518;6.732;2022-08-16T03:49:59;95800.84;;;17.46;100.00
74346;BME280;62776;50.518;6.732;2022-08-16T03:52:46;95802.59;;;17.46;100.00
74346;BME280;62776;50.518;6.732;2022-08-16T03:55:32;95805.09;;;17.49;100.00
74346;BME280;62776;50.518;6.732;2022-08-16T03:58:18;95805.22;;;17.46;100.00
74346;BME280;62776;50.518;6.732;2022-08-16T04:01:05;95811.41;;;17.45;100.00
74346;BME280;62776;50.518;6.732;2022-08-16T04:03:51;95802.66;;;17.44;100.00
74346;BME280;62776;50.518;6.732;2022-08-16T04:06:38;95807.09;;;17.44;100.00
74346;BME280;62776;50.518;6.732;2022-08-16T04:09:24;95809.78;;;17.42;100.00
74346;BME280;62776;50.518;6.732;2022-08-16T04:12:11;95812.53;;;17.39;100.00
74346;BME280;62776;50.518;6.732;2022-08-16T04:14:57;95811.69;;;17.39;100.00
74346;BME280;62776;50.518;6.732;2022-08-16T04:17:43;95813.50;;;17.38;100.00
74346;BME280;62776;50.518;6.732;2022-08-16T04:20:30;95814.31;;;17.39;100.00
74346;BME280;62776;50.518;6.732;2022-08-16T04:23:16;95814.41;;;17.37;100.00
74346;BME280;62776;50.518;6.732;2022-08-16T04:26:04;95819.56;;;17.39;100.00
74346;BME280;62776;50.518;6.732;2022-08-16T04:28:50;95810.91;;;17.37;100.00
74346;BME280;62776;50.518;6.732;2022-08-16T04:31:36;95820.53;;;17.38;100.00
74346;BME280;62776;50.518;6.732;2022-08-16T04:34:23;95821.44;;;17.37;100.00
74346;BME280;62776;50.518;6.732;2022-08-16T04:37:09;95822.28;;;17.37;100.00
74346;BME280;62776;50.518;6.732;2022-08-16T04:39:55;95825.78;;;17.38;100.00
74346;BME280;62776;50.518;6.732;2022-08-16T04:42:42;95826.78;;;17.35;100.00
74346;BME280;62776;50.518;6.732;2022-08-16T04:45:28;95826.69;;;17.37;100.00
74346;BME280;62776;50.518;6.732;2022-08-16T04:48:14;95819.75;;;17.36;100.00
74346;BME280;62776;50.518;6.732;2022-08-16T04:51:01;95833.66;;;17.38;100.00
74346;BME280;62776;50.518;6.732;2022-08-16T04:53:47;95831.94;;;17.37;100.00
74346;BME280;62776;50.518;6.732;2022-08-16T04:56:34;95830.09;;;17.39;100.00
74346;BME280;62776;50.518;6.732;2022-08-16T04:59:20;95837.91;;;17.40;100.00
74346;BME280;62776;50.518;6.732;2022-08-16T05:02:07;95836.91;;;17.43;100.00
74346;BME280;62776;50.518;6.732;2022-08-16T05:04:53;95837.63;;;17.46;100.00
74346;BME280;62776;50.518;6.732;2022-08-16T05:07:39;95832.13;;;17.51;100.00
74346;BME280;62776;50.518;6.732;2022-08-16T05:10:26;95834.53;;;17.55;100.00
74346;BME280;62776;50.518;6.732;2022-08-16T05:13:12;95842.22;;;17.60;100.00
74346;BME280;62776;50.518;6.732;2022-08-16T05:15:58;95835.97;;;17.62;100.00
74346;BME280;62776;50.518;6.732;2022-08-16T05:18:45;95833.88;;;17.69;100.00
74346;BME280;62776;50.518;6.732;2022-08-16T05:21:31;95837.97;;;17.75;100.00
74346;BME280;62776;50.518;6.732;2022-08-16T05:24:18;95833.28;;;17.81;100.00
74346;BME280;62776;50.518;6.732;2022-08-16T05:27:04;95842.63;;;17.87;100.00
74346;BME280;62776;50.518;6.732;2022-08-16T05:29:50;95834.44;;;17.93;100.00
74346;BME280;62776;50.518;6.732;2022-08-16T05:32:37;95836.81;;;17.97;100.00
74346;BME280;62776;50.518;6.732;2022-08-16T05:35:23;95834.66;;;18.05;100.00
74346;BME280;62776;50.518;6.732;2022-08-16T05:38:09;95838.00;;;18.09;100.00
74346;BME280;62776;50.518;6.732;2022-08-16T05:40:57;95845.47;;;18.16;100.00
74346;BME280;62776;50.518;6.732;2022-08-16T05:43:43;95839.00;;;18.23;100.00
74346;BME280;62776;50.518;6.732;2022-08-16T05:46:30;95850.13;;;18.28;100.00
74346;BME280;62776;50.518;6.732;2022-08-16T05:49:16;95851.50;;;18.36;100.00
74346;BME280;62776;50.518;6.732;2022-08-16T05:52:03;95855.53;;;18.43;100.00
74346;BME280;62776;50.518;6.732;2022-08-16T05:54:49;95847.25;;;18.50;100.00
74346;BME280;62776;50.518;6.732;2022-08-16T05:57:35;95845.16;;;18.57;100.00
74346;BME280;62776;50.518;6.732;2022-08-16T06:00:21;95846.53;;;18.64;99.61
74346;BME280;62776;50.518;6.732;2022-08-16T06:03:07;95850.63;;;18.69;98.87
74346;BME280;62776;50.518;6.732;2022-08-16T06:05:53;95838.97;;;18.73;99.51
74346;BME280;62776;50.518;6.732;2022-08-16T06:08:39;95846.38;;;18.82;98.66
74346;BME280;62776;50.518;6.732;2022-08-16T06:11:25;95849.44;;;18.91;97.96
74346;BME280;62776;50.518;6.732;2022-08-16T06:14:12;95862.19;;;18.98;98.38
74346;BME280;62776;50.518;6.732;2022-08-16T06:16:58;95864.59;;;19.03;97.49
74346;BME280;62776;50.518;6.732;2022-08-16T06:19:44;95872.25;;;19.07;96.57
74346;BME280;62776;50.518;6.732;2022-08-16T06:22:30;95876.06;;;19.17;96.09
74346;BME280;62776;50.518;6.732;2022-08-16T06:25:17;95884.50;;;19.24;95.65
74346;BME280;62776;50.518;6.732;2022-08-16T06:28:03;95885.03;;;19.30;95.03
74346;BME280;62776;50.518;6.732;2022-08-16T06:30:50;95884.53;;;19.39;93.68
74346;BME280;62776;50.518;6.732;2022-08-16T06:33:36;95884.88;;;19.49;93.27
74346;BME280;62776;50.518;6.732;2022-08-16T06:36:22;95889.72;;;19.57;92.54
74346;BME280;62776;50.518;6.732;2022-08-16T06:39:09;95883.94;;;19.66;92.81
74346;BME280;62776;50.518;6.732;2022-08-16T06:41:55;95884.25;;;19.75;92.38
74346;BME280;62776;50.518;6.732;2022-08-16T06:44:41;95880.41;;;19.81;91.39
74346;BME280;62776;50.518;6.732;2022-08-16T06:47:27;95879.88;;;19.90;91.66
74346;BME280;62776;50.518;6.732;2022-08-16T06:50:14;95881.06;;;20.00;90.95
74346;BME280;62776;50.518;6.732;2022-08-16T06:53:00;95892.09;;;20.07;90.84
74346;BME280;62776;50.518;6.732;2022-08-16T06:55:47;95896.00;;;20.15;90.16
74346;BME280;62776;50.518;6.732;2022-08-16T06:58:33;95895.56;;;20.23;89.02
74346;BME280;62776;50.518;6.732;2022-08-16T07:01:20;95890.03;;;20.27;88.70
74346;BME280;62776;50.518;6.732;2022-08-16T07:04:07;95901.19;;;20.32;88.69
74346;BME280;62776;50.518;6.732;2022-08-16T07:06:53;95908.53;;;20.41;88.52
74346;BME280;62776;50.518;6.732;2022-08-16T07:09:39;95901.00;;;20.49;87.38
74346;BME280;62776;50.518;6.732;2022-08-16T07:12:26;95901.78;;;20.51;86.88
74346;BME280;62776;50.518;6.732;2022-08-16T07:15:12;95890.66;;;20.60;87.24
74346;BME280;62776;50.518;6.732;2022-08-16T07:17:58;95901.59;;;20.69;85.99
74346;BME280;62776;50.518;6.732;2022-08-16T07:20:46;95892.38;;;20.76;85.75
74346;BME280;62776;50.518;6.732;2022-08-16T07:23:32;95891.72;;;20.86;84.52
74346;BME280;62776;50.518;6.732;2022-08-16T07:26:21;95895.50;;;20.96;84.83
74346;BME280;62776;50.518;6.732;2022-08-16T07:29:08;95904.19;;;21.12;84.14
74346;BME280;62776;50.518;6.732;2022-08-16T07:31:54;95906.56;;;21.31;84.25
74346;BME280;62776;50.518;6.732;2022-08-16T07:34:41;95912.03;;;21.42;80.99
74346;BME280;62776;50.518;6.732;2022-08-16T07:37:27;95910.00;;;21.60;81.67
74346;BME280;62776;50.518;6.732;2022-08-16T07:40:13;95910.09;;;21.72;78.60
74346;BME280;62776;50.518;6.732;2022-08-16T07:43:00;95901.34;;;21.85;78.46
74346;BME280;62776;50.518;6.732;2022-08-16T07:45:46;95908.78;;;21.92;75.94
74346;BME280;62776;50.518;6.732;2022-08-16T07:48:33;95909.72;;;22.05;76.63
74346;BME280;62776;50.518;6.732;2022-08-16T07:51:19;95908.03;;;22.17;75.06
74346;BME280;62776;50.518;6.732;2022-08-16T07:54:07;95910.81;;;22.28;75.40
74346;BME280;62776;50.518;6.732;2022-08-16T07:56:53;95902.59;;;22.45;73.75
74346;BME280;62776;50.518;6.732;2022-08-16T07:59:40;95906.22;;;22.57;72.23
74346;BME280;62776;50.518;6.732;2022-08-16T08:02:27;95904.06;;;22.63;71.12
74346;BME280;62776;50.518;6.732;2022-08-16T08:05:13;95899.41;;;22.79;70.61
74346;BME280;62776;50.518;6.732;2022-08-16T08:08:00;95894.84;;;22.81;69.17
74346;BME280;62776;50.518;6.732;2022-08-16T08:10:46;95901.97;;;22.94;70.74
74346;BME280;62776;50.518;6.732;2022-08-16T08:13:32;95905.09;;;23.11;70.61
74346;BME280;62776;50.518;6.732;2022-08-16T08:16:19;95914.75;;;23.25;68.91
74346;BME280;62776;50.518;6.732;2022-08-16T08:19:06;95914.66;;;23.39;66.65
74346;BME280;62776;50.518;6.732;2022-08-16T08:21:57;95914.53;;;23.53;65.97
74346;BME280;62776;50.518;6.732;2022-08-16T08:24:43;95917.91;;;23.68;65.07
74346;BME280;62776;50.518;6.732;2022-08-16T08:27:30;95924.72;;;23.83;66.07
74346;BME280;62776;50.518;6.732;2022-08-16T08:30:16;95926.28;;;23.98;63.90
74346;BME280;62776;50.518;6.732;2022-08-16T08:33:02;95935.16;;;24.10;61.28
74346;BME280;62776;50.518;6.732;2022-08-16T08:35:49;95940.31;;;24.24;61.71
74346;BME280;62776;50.518;6.732;2022-08-16T08:38:35;95932.63;;;24.32;59.08
74346;BME280;62776;50.518;6.732;2022-08-16T08:41:21;95943.94;;;24.46;57.67
74346;BME280;62776;50.518;6.732;2022-08-16T08:44:11;95932.72;;;24.54;55.89
74346;BME280;62776;50.518;6.732;2022-08-16T08:47:02;95939.78;;;24.66;55.68
74346;BME280;62776;50.518;6.732;2022-08-16T08:49:49;95924.16;;;24.85;56.95
74346;BME280;62776;50.518;6.732;2022-08-16T08:52:35;95925.75;;;24.99;55.24
74346;BME280;62776;50.518;6.732;2022-08-16T08:55:22;95940.75;;;25.11;54.44
74346;BME280;62776;50.518;6.732;2022-08-16T08:58:09;95936.06;;;25.26;55.23
74346;BME280;62776;50.518;6.732;2022-08-16T09:00:55;95939.56;;;25.37;52.92
74346;BME280;62776;50.518;6.732;2022-08-16T09:03:42;95940.09;;;25.53;54.01
74346;BME280;62776;50.518;6.732;2022-08-16T09:06:28;95940.31;;;25.61;50.91
74346;BME280;62776;50.518;6.732;2022-08-16T09:09:15;95936.56;;;25.75;51.07
74346;BME280;62776;50.518;6.732;2022-08-16T09:12:02;95950.56;;;25.88;50.77
74346;BME280;62776;50.518;6.732;2022-08-16T09:14:49;95943.88;;;26.05;50.44
74346;BME280;62776;50.518;6.732;2022-08-16T09:17:35;95952.09;;;26.24;51.49
74346;BME280;62776;50.518;6.732;2022-08-16T09:20:24;95939.47;;;26.37;49.18
74346;BME280;62776;50.518;6.732;2022-08-16T09:23:11;95949.78;;;26.62;51.00
74346;BME280;62776;50.518;6.732;2022-08-16T09:25:58;95948.03;;;26.83;50.18
74346;BME280;62776;50.518;6.732;2022-08-16T09:28:44;95944.25;;;27.07;49.92
74346;BME280;62776;50.518;6.732;2022-08-16T09:31:30;95950.28;;;27.29;47.38
74346;BME280;62776;50.518;6.732;2022-08-16T09:34:16;95947.81;;;27.37;47.66
74346;BME280;62776;50.518;6.732;2022-08-16T09:37:02;95945.97;;;27.59;48.11
74346;BME280;62776;50.518;6.732;2022-08-16T09:39:49;95948.63;;;27.59;45.34
74346;BME280;62776;50.518;6.732;2022-08-16T09:42:35;95953.72;;;27.62;46.24
74346;BME280;62776;50.518;6.732;2022-08-16T09:45:22;95953.34;;;27.76;45.62
74346;BME280;62776;50.518;6.732;2022-08-16T09:48:12;95951.00;;;27.92;45.71
74346;BME280;62776;50.518;6.732;2022-08-16T09:50:59;95949.84;;;28.15;45.81
74346;BME280;62776;50.518;6.732;2022-08-16T09:53:45;95948.75;;;28.37;44.87
74346;BME280;62776;50.518;6.732;2022-08-16T09:56:34;95942.72;;;28.44;44.34
74346;BME280;62776;50.518;6.732;2022-08-16T09:59:22;95947.94;;;28.55;44.58
74346;BME280;62776;50.518;6.732;2022-08-16T10:02:08;95936.50;;;28.44;43.77
74346;BME280;62776;50.518;6.732;2022-08-16T10:04:56;95939.03;;;28.36;43.71
74346;BME280;62776;50.518;6.732;2022-08-16T10:07:44;95943.81;;;28.23;43.71
74346;BME280;62776;50.518;6.732;2022-08-16T10:10:32;95944.78;;;28.12;44.03
74346;BME280;62776;50.518;6.732;2022-08-16T10:13:19;95939.97;;;28.06;43.81
74346;BME280;62776;50.518;6.732;2022-08-16T10:16:05;95940.91;;;27.95;44.68
74346;BME280;62776;50.518;6.732;2022-08-16T10:18:52;95940.75;;;27.87;45.88
74346;BME280;62776;50.518;6.732;2022-08-16T10:21:38;95943.09;;;27.81;43.89
74346;BME280;62776;50.518;6.732;2022-08-16T10:24:24;95948.00;;;27.76;43.56
74346;BME280;62776;50.518;6.732;2022-08-16T10:27:11;95943.78;;;27.73;44.77
74346;BME280;62776;50.518;6.732;2022-08-16T10:29:57;95950.50;;;27.68;43.89
74346;BME280;62776;50.518;6.732;2022-08-16T10:32:43;95948.16;;;27.44;43.74
74346;BME280;62776;50.518;6.732;2022-08-16T10:35:30;95949.97;;;27.43;44.44
74346;BME280;62776;50.518;6.732;2022-08-16T10:38:16;95942.09;;;27.21;43.99
74346;BME280;62776;50.518;6.732;2022-08-16T10:41:04;95945.81;;;27.09;44.37
74346;BME280;62776;50.518;6.732;2022-08-16T10:43:50;95944.75;;;27.01;45.22
74346;BME280;62776;50.518;6.732;2022-08-16T10:46:37;95941.97;;;27.02;45.25
74346;BME280;62776;50.518;6.732;2022-08-16T10:49:23;95946.19;;;27.25;46.98
74346;BME280;62776;50.518;6.732;2022-08-16T10:52:09;95945.34;;;27.45;44.50
74346;BME280;62776;50.518;6.732;2022-08-16T10:54:55;95943.13;;;27.50;44.49
74346;BME280;62776;50.518;6.732;2022-08-16T10:57:41;95954.38;;;27.54;44.54
74346;BME280;62776;50.518;6.732;2022-08-16T11:00:28;95949.72;;;27.46;45.24
74346;BME280;62776;50.518;6.732;2022-08-16T11:03:14;95957.78;;;27.35;45.04
74346;BME280;62776;50.518;6.732;2022-08-16T11:06:01;95959.78;;;27.22;44.74
74346;BME280;62776;50.518;6.732;2022-08-16T11:08:47;95963.72;;;27.18;46.07
74346;BME280;62776;50.518;6.732;2022-08-16T11:11:33;95965.41;;;26.99;46.32
74346;BME280;62776;50.518;6.732;2022-08-16T11:14:20;95962.78;;;26.87;45.75
74346;BME280;62776;50.518;6.732;2022-08-16T11:17:06;95959.28;;;26.87;46.64
74346;BME280;62776;50.518;6.732;2022-08-16T11:19:52;95971.19;;;26.83;46.28
74346;BME280;62776;50.518;6.732;2022-08-16T11:22:39;95971.66;;;26.77;46.54
74346;BME280;62776;50.518;6.732;2022-08-16T11:25:27;95977.03;;;26.66;46.41
74346;BME280;62776;50.518;6.732;2022-08-16T11:28:14;95982.03;;;26.59;46.00
74346;BME280;62776;50.518;6.732;2022-08-16T11:31:00;95975.88;;;26.59;46.70
74346;BME280;62776;50.518;6.732;2022-08-16T11:33:47;95972.94;;;26.62;46.58
74346;BME280;62776;50.518;6.732;2022-08-16T11:36:33;95971.72;;;26.66;46.95
74346;BME280;62776;50.518;6.732;2022-08-16T11:39:19;95978.50;;;26.70;46.72
74346;BME280;62776;50.518;6.732;2022-08-16T11:42:05;95977.00;;;26.77;46.59
74346;BME280;62776;50.518;6.732;2022-08-16T11:44:51;95984.28;;;26.86;47.19
74346;BME280;62776;50.518;6.732;2022-08-16T11:47:37;95983.47;;;26.95;46.08
74346;BME280;62776;50.518;6.732;2022-08-16T11:50:23;95981.78;;;27.15;47.19
74346;BME280;62776;50.518;6.732;2022-08-16T11:53:10;95973.59;;;27.48;46.47
74346;BME280;62776;50.518;6.732;2022-08-16T11:56:00;95974.19;;;27.82;44.19
74346;BME280;62776;50.518;6.732;2022-08-16T11:58:46;95979.34;;;28.04;42.77
74346;BME280;62776;50.518;6.732;2022-08-16T12:01:33;95974.50;;;28.28;41.68
74346;BME280;62776;50.518;6.732;2022-08-16T12:04:19;95975.22;;;28.49;42.82
74346;BME280;62776;50.518;6.732;2022-08-16T12:07:07;95970.06;;;28.67;40.24
74346;BME280;62776;50.518;6.732;2022-08-16T12:09:55;95970.91;;;28.77;39.46
74346;BME280;62776;50.518;6.732;2022-08-16T12:12:42;95969.06;;;28.97;40.05
74346;BME280;62776;50.518;6.732;2022-08-16T12:15:28;95967.78;;;29.30;39.72
74346;BME280;62776;50.518;6.732;2022-08-16T12:18:14;95968.00;;;29.55;37.61
74346;BME280;62776;50.518;6.732;2022-08-16T12:21:01;95955.66;;;29.81;38.87
74346;BME280;62776;50.518;6.732;2022-08-16T12:23:48;95958.66;;;30.06;38.56
74346;BME280;62776;50.518;6.732;2022-08-16T12:26:34;95963.72;;;30.09;37.72
74346;BME280;62776;50.518;6.732;2022-08-16T12:29:20;95956.34;;;30.11;37.20
74346;BME280;62776;50.518;6.732;2022-08-16T12:32:06;95958.81;;;30.04;36.99
74346;BME280;62776;50.518;6.732;2022-08-16T12:34:52;95963.50;;;30.02;36.60
74346;BME280;62776;50.518;6.732;2022-08-16T12:37:40;95959.03;;;29.83;36.10
74346;BME280;62776;50.518;6.732;2022-08-16T12:40:32;95959.06;;;29.74;37.34
74346;BME280;62776;50.518;6.732;2022-08-16T12:43:18;95962.63;;;30.02;37.44
74346;BME280;62776;50.518;6.732;2022-08-16T12:46:09;95954.09;;;30.16;35.89
74346;BME280;62776;50.518;6.732;2022-08-16T12:48:55;95961.09;;;30.26;35.31
74346;BME280;62776;50.518;6.732;2022-08-16T12:51:44;95954.78;;;30.45;35.98
74346;BME280;62776;50.518;6.732;2022-08-16T12:54:31;95946.22;;;30.59;34.92
74346;BME280;62776;50.518;6.732;2022-08-16T12:57:18;95952.34;;;30.69;34.42
74346;BME280;62776;50.518;6.732;2022-08-16T13:00:11;95941.91;;;30.66;34.77
74346;BME280;62776;50.518;6.732;2022-08-16T13:02:59;95939.06;;;30.85;35.32
74346;BME280;62776;50.518;6.732;2022-08-16T13:05:45;95948.81;;;30.86;34.79
74346;BME280;62776;50.518;6.732;2022-08-16T13:08:34;95953.00;;;30.71;34.47
74346;BME280;62776;50.518;6.732;2022-08-16T13:11:35;95957.53;;;30.53;35.38
74346;BME280;62776;50.518;6.732;2022-08-16T13:14:22;95950.56;;;30.15;36.27
74346;BME280;62776;50.518;6.732;2022-08-16T13:17:11;95955.25;;;30.41;34.86
74346;BME280;62776;50.518;6.732;2022-08-16T13:19:58;95966.28;;;30.55;34.93
74346;BME280;62776;50.518;6.732;2022-08-16T13:22:49;95959.91;;;30.38;34.22
74346;BME280;62776;50.518;6.732;2022-08-16T13:25:38;95961.59;;;30.30;34.86
74346;BME280;62776;50.518;6.732;2022-08-16T13:28:25;95958.72;;;29.96;35.15
74346;BME280;62776;50.518;6.732;2022-08-16T13:31:11;95964.09;;;29.87;36.03
74346;BME280;62776;50.518;6.732;2022-08-16T13:33:57;95968.38;;;29.79;35.76
74346;BME280;62776;50.518;6.732;2022-08-16T13:36:43;95962.59;;;29.74;35.71
74346;BME280;62776;50.518;6.732;2022-08-16T13:39:29;95970.91;;;29.71;36.11
74346;BME280;62776;50.518;6.732;2022-08-16T13:42:16;95973.88;;;29.68;36.76
74346;BME280;62776;50.518;6.732;2022-08-16T13:45:07;95976.44;;;29.60;36.67
74346;BME280;62776;50.518;6.732;2022-08-16T13:47:53;95967.28;;;29.53;36.42
74346;BME280;62776;50.518;6.732;2022-08-16T13:50:39;95976.91;;;29.46;36.89
74346;BME280;62776;50.518;6.732;2022-08-16T13:53:25;95976.09;;;29.36;37.37
74346;BME280;62776;50.518;6.732;2022-08-16T13:56:13;95986.97;;;29.25;38.39
74346;BME280;62776;50.518;6.732;2022-08-16T13:58:59;95980.75;;;29.15;38.54
74346;BME280;62776;50.518;6.732;2022-08-16T14:01:46;95975.97;;;29.09;39.46
74346;BME280;62776;50.518;6.732;2022-08-16T14:04:36;95986.97;;;28.96;38.81
74346;BME280;62776;50.518;6.732;2022-08-16T14:07:23;95983.72;;;28.93;40.59
74346;BME280;62776;50.518;6.732;2022-08-16T14:10:11;95986.09;;;28.77;40.66
74346;BME280;62776;50.518;6.732;2022-08-16T14:12:57;95978.06;;;28.96;39.98
74346;BME280;62776;50.518;6.732;2022-08-16T14:15:43;95965.84;;;29.68;41.97
74346;BME280;62776;50.518;6.732;2022-08-16T14:18:29;95965.06;;;29.58;40.35
74346;BME280;62776;50.518;6.732;2022-08-16T14:21:15;95960.59;;;29.30;40.15
74346;BME280;62776;50.518;6.732;2022-08-16T14:24:03;95972.72;;;29.15;42.06
74346;BME280;62776;50.518;6.732;2022-08-16T14:26:49;95973.59;;;29.06;41.60
74346;BME280;62776;50.518;6.732;2022-08-16T14:29:35;95978.66;;;28.90;42.08
74346;BME280;62776;50.518;6.732;2022-08-16T14:32:24;95971.63;;;28.70;41.59
74346;BME280;62776;50.518;6.732;2022-08-16T14:35:23;95972.94;;;28.35;40.10
74346;BME280;62776;50.518;6.732;2022-08-16T14:38:10;95968.47;;;28.55;42.25
74346;BME280;62776;50.518;6.732;2022-08-16T14:40:56;95969.75;;;28.60;41.57
74346;BME280;62776;50.518;6.732;2022-08-16T14:43:42;95966.84;;;28.73;41.23
74346;BME280;62776;50.518;6.732;2022-08-16T14:46:29;95964.22;;;29.48;39.55